createdAt,value
2023-01-26T00:03:13.420Z,90.70
2023-01-26T00:08:15.551Z,90.80
2023-01-26T00:13:19.333Z,90.80
2023-01-26T00:18:21.448Z,90.80
2023-01-26T00:23:23.647Z,90.80
2023-01-26T00:28:28.680Z,90.90
2023-01-26T00:33:30.859Z,90.90
2023-01-26T00:38:33.030Z,90.80
2023-01-26T00:43:36.504Z,90.90
2023-01-26T00:48:38.632Z,90.90
2023-01-26T00:53:40.706Z,90.90
2023-01-26T00:58:44.294Z,91.10
2023-01-26T01:03:46.386Z,91.00
2023-01-26T01:08:48.859Z,90.90
2023-01-26T01:13:52.385Z,90.90
2023-01-26T01:18:55.196Z,90.90
2023-01-26T01:23:57.504Z,90.90
2023-01-26T01:29:01.123Z,90.90
2023-01-26T01:34:03.310Z,90.90
2023-01-26T01:39:05.461Z,90.80
2023-01-26T01:44:20.685Z,90.90
2023-01-26T01:49:28.225Z,91.00
2023-01-26T01:54:36.480Z,90.90
2023-01-26T01:59:40.129Z,90.90
2023-01-26T02:04:42.651Z,91.00
2023-01-26T02:09:45.493Z,91.00
2023-01-26T02:14:51.455Z,91.00
2023-01-26T02:20:01.022Z,91.00
2023-01-26T02:25:10.248Z,90.90
2023-01-26T02:30:16.215Z,90.90
2023-01-26T02:35:18.532Z,90.90
2023-01-26T02:40:30.562Z,91.00
2023-01-26T02:45:34.863Z,90.90
2023-01-26T02:50:37.053Z,90.90
2023-01-26T02:55:39.126Z,90.90
2023-01-26T03:00:42.747Z,90.80
2023-01-26T03:05:45.480Z,90.80
2023-01-26T03:10:48.802Z,90.80
2023-01-26T03:15:52.558Z,90.80
2023-01-26T03:20:54.971Z,90.90
2023-01-26T03:25:57.689Z,90.90
2023-01-26T03:31:01.296Z,90.90
2023-01-26T03:36:03.695Z,90.90
2023-01-26T03:41:05.757Z,90.90
2023-01-26T03:46:09.495Z,91.00
2023-01-26T03:51:11.523Z,91.00
2023-01-26T03:56:13.655Z,91.00
2023-01-26T04:01:17.322Z,90.90
2023-01-26T04:06:19.431Z,91.00
2023-01-26T04:11:21.583Z,91.00
2023-01-26T04:16:25.392Z,91.00
2023-01-26T04:21:27.591Z,91.00
2023-01-26T04:26:31.933Z,91.00
2023-01-26T04:31:35.818Z,91.00
2023-01-26T04:36:38.032Z,91.00
2023-01-26T04:41:42.274Z,91.00
2023-01-26T04:46:46.131Z,91.00
2023-01-26T04:51:48.276Z,90.90
2023-01-26T04:56:50.417Z,91.00
2023-01-26T05:01:54.016Z,91.00
2023-01-26T05:06:56.064Z,91.10
2023-01-26T05:11:58.518Z,91.10
2023-01-26T05:17:02.072Z,91.10
2023-01-26T05:22:04.178Z,91.00
2023-01-26T05:27:08.011Z,91.00
2023-01-26T05:32:11.945Z,91.00
2023-01-26T05:37:15.178Z,91.00
2023-01-26T05:42:18.314Z,91.00
2023-01-26T05:47:21.955Z,91.00
2023-01-26T05:52:24.116Z,91.10
2023-01-26T05:57:26.228Z,91.10
2023-01-26T06:02:29.778Z,91.10
2023-01-26T06:07:32.331Z,91.10
2023-01-26T06:12:34.433Z,91.20
2023-01-26T06:17:38.045Z,91.10
2023-01-26T06:22:40.300Z,91.10
2023-01-26T06:27:42.734Z,91.10
2023-01-26T06:32:49.260Z,91.10
2023-01-26T06:37:51.548Z,91.10
2023-01-26T06:42:53.693Z,91.10
2023-01-26T06:47:57.466Z,91.50
2023-01-26T06:53:00.795Z,91.10
2023-01-26T06:58:03.103Z,91.10
2023-01-26T07:03:06.691Z,91.10
2023-01-26T07:08:10.025Z,91.10
2023-01-26T07:13:12.114Z,91.10
2023-01-26T07:18:15.888Z,91.20
2023-01-26T07:23:17.986Z,91.20
2023-01-26T07:28:20.169Z,91.20
2023-01-26T07:33:23.783Z,91.10
2023-01-26T07:38:26.808Z,91.10
2023-01-26T07:43:28.976Z,91.10
2023-01-26T07:48:32.539Z,91.10
2023-01-26T07:53:35.232Z,91.10
2023-01-26T07:58:37.514Z,91.10
2023-01-26T08:03:42.003Z,91.10
2023-01-26T08:08:44.162Z,91.10
2023-01-26T08:13:46.381Z,91.10
2023-01-26T08:18:50.303Z,91.00
2023-01-26T08:23:52.821Z,91.00
2023-01-26T08:28:55.074Z,91.00
2023-01-26T08:33:59.106Z,91.00
2023-01-26T08:39:01.303Z,91.00
2023-01-26T08:44:03.472Z,90.90
2023-01-26T08:49:06.983Z,90.90
2023-01-26T08:54:09.214Z,91.00
2023-01-26T08:59:11.569Z,91.10
2023-01-26T09:04:15.165Z,91.20
2023-01-26T09:09:17.271Z,91.80
2023-01-26T09:14:19.394Z,92.90
2023-01-26T09:19:23.070Z,93.50
2023-01-26T09:24:25.451Z,93.40
2023-01-26T09:29:27.611Z,93.10
2023-01-26T09:34:31.216Z,92.60
2023-01-26T09:39:33.475Z,92.00
2023-01-26T09:44:45.247Z,91.50
2023-01-26T09:49:56.784Z,90.80
2023-01-26T09:55:02.755Z,90.40
2023-01-26T10:00:10.230Z,90.20
2023-01-26T10:05:20.706Z,89.50
2023-01-26T10:10:29.400Z,88.10
2023-01-26T10:15:36.908Z,86.50
2023-01-26T10:20:45.246Z,85.80
2023-01-26T10:25:47.746Z,85.00
2023-01-26T10:30:50.024Z,85.60
2023-01-26T10:35:54.187Z,86.20
2023-01-26T10:40:58.281Z,85.30
2023-01-26T10:46:03.258Z,84.80
2023-01-26T10:51:21.813Z,85.50
2023-01-26T10:56:24.215Z,85.60
2023-01-26T11:01:26.420Z,87.00
2023-01-26T11:06:31.565Z,86.60
2023-01-26T11:11:33.672Z,85.60
2023-01-26T11:16:36.515Z,85.90
2023-01-26T11:21:46.426Z,85.40
2023-01-26T11:27:20.404Z,83.40
2023-01-26T11:32:34.512Z,80.30
2023-01-26T11:37:43.042Z,80.20
2023-01-26T11:42:54.716Z,80.00
2023-01-26T11:48:17.914Z,79.60
2023-01-26T11:53:38.487Z,79.60
2023-01-26T11:58:45.317Z,79.80
2023-01-26T12:03:50.759Z,80.70
2023-01-26T12:09:00.337Z,80.60
2023-01-26T12:14:18.935Z,80.70
2023-01-26T12:19:38.233Z,81.10
2023-01-26T12:25:16.269Z,81.20
2023-01-26T12:30:26.916Z,82.40
2023-01-26T12:35:46.124Z,81.30
2023-01-26T12:41:02.342Z,81.00
2023-01-26T12:46:06.963Z,80.60
2023-01-26T12:51:12.833Z,81.60
2023-01-26T12:56:23.568Z,82.00
2023-01-26T13:01:36.980Z,81.30
2023-01-26T13:06:39.319Z,81.20
2023-01-26T13:11:46.836Z,82.20
2023-01-26T13:16:49.048Z,82.50
2023-01-26T13:21:51.328Z,81.90
2023-01-26T13:26:56.668Z,81.00
2023-01-26T13:32:00.912Z,80.60
2023-01-26T13:37:13.230Z,80.70
2023-01-26T13:42:23.920Z,80.60
2023-01-26T13:47:32.678Z,80.60
2023-01-26T13:52:42.385Z,81.00
2023-01-26T13:57:46.226Z,80.80
2023-01-26T14:02:51.391Z,81.30
2023-01-26T14:07:53.660Z,81.40
2023-01-26T14:12:57.862Z,81.60
2023-01-26T14:18:01.841Z,81.40
2023-01-26T14:23:14.180Z,81.50
2023-01-26T14:28:22.667Z,81.50
2023-01-26T14:33:25.140Z,81.80
2023-01-26T14:38:29.473Z,82.20
2023-01-26T14:43:33.019Z,82.20
2023-01-26T14:48:40.894Z,82.30
2023-01-26T14:53:49.640Z,82.20
2023-01-26T14:58:55.226Z,81.80
2023-01-26T15:04:01.555Z,82.10
2023-01-26T15:09:06.623Z,82.00
2023-01-26T15:14:33.096Z,82.10
2023-01-26T15:19:41.996Z,81.70
2023-01-26T15:24:47.283Z,82.20
2023-01-26T15:29:58.265Z,82.40
2023-01-26T15:35:07.439Z,82.20
2023-01-26T15:40:10.758Z,82.40
2023-01-26T15:45:23.472Z,82.60
2023-01-26T15:50:28.094Z,82.50
2023-01-26T15:55:33.423Z,82.60
2023-01-26T16:00:37.124Z,82.80
2023-01-26T16:05:39.278Z,82.80
2023-01-26T16:10:42.125Z,83.00
2023-01-26T16:15:47.904Z,83.20
2023-01-26T16:20:50.189Z,83.30
2023-01-26T16:25:53.285Z,83.40
2023-01-26T16:30:56.887Z,83.50
2023-01-26T16:35:59.080Z,83.70
2023-01-26T16:41:01.296Z,83.80
2023-01-26T16:46:04.954Z,83.70
2023-01-26T16:51:20.275Z,83.80
2023-01-26T16:56:23.386Z,84.30
2023-01-26T17:01:30.632Z,84.30
2023-01-26T17:06:32.627Z,84.40
2023-01-26T17:11:34.713Z,84.60
2023-01-26T17:16:38.347Z,84.20
2023-01-26T17:21:40.651Z,84.40
2023-01-26T17:26:42.781Z,84.60
2023-01-26T17:31:46.399Z,84.70
2023-01-26T17:36:48.540Z,84.90
2023-01-26T17:41:53.704Z,85.20
2023-01-26T17:46:57.204Z,85.60
2023-01-26T17:51:59.320Z,85.70
2023-01-26T17:57:01.753Z,86.00
2023-01-26T18:02:05.290Z,86.00
2023-01-26T18:07:07.511Z,86.00
2023-01-26T18:12:09.751Z,86.10
2023-01-26T18:17:13.707Z,86.00
2023-01-26T18:22:15.796Z,86.20
2023-01-26T18:27:19.956Z,86.20
2023-01-26T18:32:24.409Z,86.30
2023-01-26T18:37:32.166Z,86.30
2023-01-26T18:42:35.172Z,86.60
2023-01-26T18:47:38.957Z,86.60
2023-01-26T18:52:41.686Z,86.70
2023-01-26T18:57:43.855Z,86.60
2023-01-26T19:02:49.070Z,86.80
2023-01-26T19:07:51.248Z,87.00
2023-01-26T19:12:53.361Z,87.20
2023-01-26T19:17:57.255Z,87.40
2023-01-26T19:23:02.547Z,87.30
2023-01-26T19:28:05.517Z,87.40
2023-01-26T19:33:09.447Z,87.20
2023-01-26T19:38:13.634Z,87.30
2023-01-26T19:43:17.254Z,87.40
2023-01-26T19:48:24.287Z,87.60
2023-01-26T19:53:26.686Z,87.90
2023-01-26T19:58:29.008Z,88.10
2023-01-26T20:03:33.341Z,88.20
2023-01-26T20:08:35.698Z,88.40
2023-01-26T20:13:38.533Z,88.40
2023-01-26T20:18:42.557Z,88.40
2023-01-26T20:23:53.906Z,88.40
2023-01-26T20:28:58.430Z,88.30
2023-01-26T20:34:02.685Z,88.50
2023-01-26T20:39:08.125Z,88.50
2023-01-26T20:44:11.220Z,88.50
2023-01-26T20:49:17.885Z,88.40
2023-01-26T20:54:20.913Z,88.50
2023-01-26T20:59:25.897Z,88.40
2023-01-26T21:04:32.683Z,88.30
2023-01-26T21:09:35.289Z,88.30
2023-01-26T21:14:38.152Z,88.30
2023-01-26T21:25:46.577Z,88.50
2023-01-26T21:30:57.874Z,88.20
2023-01-26T21:36:01.967Z,88.20
2023-01-26T21:41:07.082Z,88.30
2023-01-26T21:46:09.271Z,88.20
2023-01-26T21:51:11.494Z,88.10
2023-01-26T21:56:16.422Z,88.60
2023-01-26T22:01:18.657Z,88.60
2023-01-26T22:06:20.807Z,88.70
2023-01-26T22:11:24.510Z,88.70
2023-01-26T22:16:27.090Z,88.90
2023-01-26T22:21:29.349Z,88.80
2023-01-26T22:26:32.836Z,88.80
2023-01-26T22:31:35.362Z,88.90
2023-01-26T22:36:37.682Z,88.90
2023-01-26T22:41:41.203Z,88.80
2023-01-26T22:46:43.456Z,88.90
2023-01-26T22:51:45.556Z,89.00
2023-01-26T22:56:49.203Z,88.90
2023-01-26T23:01:51.295Z,88.80
2023-01-26T23:06:53.363Z,88.70
2023-01-26T23:11:56.872Z,88.70
2023-01-26T23:16:59.017Z,88.80
2023-01-26T23:22:01.123Z,88.60
2023-01-26T23:27:04.772Z,88.70
2023-01-26T23:32:07.101Z,88.70
2023-01-26T23:37:09.180Z,88.60
2023-01-26T23:42:14.872Z,88.60
2023-01-26T23:47:17.970Z,88.50
2023-01-26T23:52:20.166Z,88.50
2023-01-26T23:57:23.808Z,88.50
